createdAt,value
2022-10-24T00:05:41.241Z,100535.53
2022-10-24T00:15:48.011Z,100540.69
2022-10-24T00:25:49.594Z,100522.53
2022-10-24T00:36:25.050Z,100524.19
2022-10-24T00:46:26.660Z,100516.50
2022-10-24T00:56:32.375Z,100510.47
2022-10-24T01:06:50.270Z,100505.28
2022-10-24T01:17:01.765Z,100493.25
2022-10-24T01:27:45.348Z,100498.38
2022-10-24T01:38:16.715Z,100514.78
2022-10-24T01:48:22.485Z,100491.50
2022-10-24T01:58:24.702Z,100480.31
2022-10-24T02:08:33.921Z,100500.16
2022-10-24T02:18:35.795Z,100477.72
2022-10-24T02:28:43.478Z,100470.91
2022-10-24T02:38:47.886Z,100463.25
2022-10-24T02:49:09.682Z,100462.44
2022-10-24T02:59:12.324Z,100458.97
2022-10-24T03:09:16.854Z,100458.13
2022-10-24T03:19:20.208Z,100449.59
2022-10-24T03:29:24.334Z,100436.66
2022-10-24T03:39:27.450Z,100442.81
2022-10-24T03:49:31.305Z,100441.16
2022-10-24T03:59:32.946Z,100438.69
2022-10-24T04:09:35.745Z,100451.72
2022-10-24T04:19:38.468Z,100459.53
2022-10-24T04:29:40.072Z,100470.78
2022-10-24T04:39:41.663Z,100445.06
2022-10-24T04:49:45.353Z,100439.00
2022-10-24T04:59:48.718Z,100443.41
2022-10-24T05:09:50.364Z,100433.19
2022-10-24T05:19:54.174Z,100443.59
2022-10-24T05:29:56.093Z,100475.47
2022-10-24T05:40:00.062Z,100464.38
2022-10-24T05:50:01.999Z,100483.31
2022-10-24T06:00:06.613Z,100499.72
2022-10-24T06:10:11.288Z,100516.97
2022-10-24T06:20:12.975Z,100523.84
2022-10-24T06:30:14.613Z,100523.72
2022-10-24T06:40:18.084Z,100515.09
2022-10-24T06:50:20.816Z,100498.66
2022-10-24T07:00:22.522Z,100488.03
2022-10-24T07:10:26.276Z,100479.97
2022-10-24T07:20:28.003Z,100495.13
2022-10-24T07:30:30.689Z,100541.72
2022-10-24T07:40:32.189Z,100558.28
2022-10-24T07:50:34.815Z,100520.72
2022-10-24T08:00:39.035Z,100519.88
2022-10-24T08:10:42.845Z,100520.78
2022-10-24T08:20:44.639Z,100525.88
2022-10-24T08:31:10.392Z,100523.09
2022-10-24T08:41:24.082Z,100512.31
2022-10-24T08:51:42.184Z,100488.56
2022-10-24T09:01:48.363Z,100468.38
2022-10-24T09:12:04.251Z,100470.47
2022-10-24T09:22:07.894Z,100477.38
2022-10-24T09:32:26.961Z,100479.53
2022-10-24T09:42:28.799Z,100505.53
2022-10-24T09:52:51.310Z,100525.78
2022-10-24T10:03:07.440Z,100517.34
2022-10-24T10:13:12.880Z,100509.41
2022-10-24T10:23:29.237Z,100499.66
2022-10-24T10:33:56.772Z,100488.09
2022-10-24T10:44:34.725Z,100480.13
2022-10-24T10:55:05.830Z,100480.84
2022-10-24T11:05:32.691Z,100467.84
2022-10-24T11:15:40.786Z,100454.56
2022-10-24T11:25:47.709Z,100454.22
2022-10-24T11:36:11.091Z,100455.81
2022-10-24T11:46:32.861Z,100437.78
2022-10-24T11:56:42.280Z,100432.69
2022-10-24T12:07:07.662Z,100427.53
2022-10-24T12:17:24.212Z,100429.31
2022-10-24T12:27:35.658Z,100411.59
2022-10-24T12:37:40.265Z,100407.13
2022-10-24T12:48:04.661Z,100408.16
2022-10-24T12:58:30.829Z,100400.75
2022-10-24T13:09:03.877Z,100365.75
2022-10-24T13:19:17.281Z,100387.66
2022-10-24T13:29:22.116Z,100360.22
2022-10-24T13:39:27.958Z,100372.22
2022-10-24T13:49:49.769Z,100367.03
2022-10-24T13:59:57.521Z,100375.22
2022-10-24T14:10:09.976Z,100363.16
2022-10-24T14:20:12.403Z,100361.25
2022-10-24T14:30:19.997Z,100348.53
2022-10-24T14:40:22.782Z,100354.88
2022-10-24T14:50:41.032Z,100359.91
2022-10-24T15:00:48.049Z,100350.47
2022-10-24T15:10:52.001Z,100340.13
2022-10-24T15:21:08.586Z,100354.03
2022-10-24T15:31:11.805Z,100352.41
2022-10-24T15:41:13.612Z,100336.13
2022-10-24T15:51:21.427Z,100327.13
2022-10-24T16:01:38.445Z,100339.63
2022-10-24T16:11:42.157Z,100331.00
2022-10-24T16:21:45.145Z,100338.75
2022-10-24T16:31:49.140Z,100348.31
2022-10-24T16:41:56.576Z,100358.66
2022-10-24T16:51:59.244Z,100338.75
2022-10-24T17:02:01.393Z,100352.72
2022-10-24T17:12:03.648Z,100339.09
2022-10-24T17:22:06.651Z,100335.13
2022-10-24T17:32:13.134Z,100335.56
2022-10-24T17:42:15.317Z,100345.16
2022-10-24T17:52:23.200Z,100340.38
2022-10-24T18:02:25.304Z,100333.78
2022-10-24T18:12:30.181Z,100334.16
2022-10-24T18:22:35.302Z,100338.88
2022-10-24T18:32:38.898Z,100322.50
2022-10-24T18:42:44.283Z,100317.72
2022-10-24T18:53:22.372Z,100304.91
2022-10-24T19:03:25.366Z,100293.84
2022-10-24T19:13:29.808Z,100284.31
2022-10-24T19:23:31.801Z,100295.50
2022-10-24T19:33:33.908Z,100290.41
2022-10-24T19:43:41.440Z,100282.81
2022-10-24T19:53:46.899Z,100280.22
2022-10-24T20:03:58.669Z,100290.44
2022-10-24T20:14:06.398Z,100238.59
2022-10-24T20:24:08.951Z,100268.84
2022-10-24T20:34:12.290Z,100256.78
2022-10-24T20:44:21.837Z,100253.25
2022-10-24T20:54:25.632Z,100250.53
2022-10-24T21:04:29.543Z,100255.69
2022-10-24T21:14:31.159Z,100270.16
2022-10-24T21:24:33.832Z,100264.03
2022-10-24T21:34:39.510Z,100273.25
2022-10-24T21:44:42.162Z,100273.19
2022-10-24T21:54:43.827Z,100269.72
2022-10-24T22:04:47.053Z,100293.81
2022-10-24T22:14:51.351Z,100294.47
2022-10-24T22:25:02.123Z,100289.34
2022-10-24T22:35:04.174Z,100263.41
2022-10-24T22:45:12.741Z,100265.78
2022-10-24T22:55:21.988Z,100269.88
2022-10-24T23:05:43.309Z,100281.13
2022-10-24T23:15:45.049Z,100272.47
2022-10-24T23:26:17.271Z,100262.00
2022-10-24T23:36:25.041Z,100250.19
2022-10-24T23:46:37.451Z,100224.34
2022-10-24T23:56:42.178Z,100213.94
